Time,TemperatureF,DewpointF,PressureIn,WindDirection,WindDirectionDegrees,WindSpeedMPH,WindSpeedGustMPH,Humidity,HourlyPrecipIn,Conditions,Clouds,dailyrainin,SoftwareType,DateUTC
2013-06-07 00:03:00,52.0,51.0,-100.00,North,350,0.0,0.0,96,-99.99,,,-99.99,,2013-06-07 05:03:00,
2013-06-07 00:12:00,52.0,51.0,-100.00,North,350,0.0,0.0,96,-99.99,,,-99.99,,2013-06-07 05:12:00,
2013-06-07 00:32:00,52.0,50.0,-100.00,North,350,0.0,0.0,96,-99.99,,,-99.99,,2013-06-07 05:32:00,
2013-06-07 00:42:00,52.0,50.0,-100.00,North,350,0.0,0.0,96,-99.99,,,-99.99,,2013-06-07 05:42:00,
2013-06-07 00:52:00,52.0,50.0,-100.00,North,350,0.0,0.0,96,-99.99,,,-99.99,,2013-06-07 05:52:00,
2013-06-07 01:02:00,52.0,50.0,-100.00,North,350,0.0,0.0,96,-99.99,,,-99.99,,2013-06-07 06:02:00,
2013-06-07 01:12:00,51.0,50.0,-100.00,North,10,0.0,0.0,96,-99.99,,,-99.99,,2013-06-07 06:12:00,
2013-06-07 01:32:00,51.0,50.0,-100.00,North,10,0.0,0.0,96,-99.99,,,-99.99,,2013-06-07 06:32:00,
2013-06-07 01:43:00,51.0,50.0,-100.00,North,10,0.0,0.0,96,-99.99,,,-99.99,,2013-06-07 06:43:00,
2013-06-07 01:52:00,51.0,50.0,-100.00,North,10,0.0,0.0,96,-99.99,,,-99.99,,2013-06-07 06:52:00,
2013-06-07 02:02:00,51.0,50.0,-100.00,North,10,0.0,0.0,96,-99.99,,,-99.99,,2013-06-07 07:02:00,
2013-06-07 02:32:00,51.0,50.0,-100.00,North,5,0.0,0.0,96,-99.99,,,-99.99,,2013-06-07 07:32:00,
2013-06-07 02:42:00,51.0,50.0,-100.00,North,5,0.0,0.0,96,-99.99,,,-99.99,,2013-06-07 07:42:00,
2013-06-07 02:52:00,51.0,50.0,-100.00,North,5,0.0,0.0,96,-99.99,,,-99.99,,2013-06-07 07:52:00,
2013-06-07 03:02:00,51.0,50.0,-100.00,North,5,0.0,0.0,96,-99.99,,,-99.99,,2013-06-07 08:02:00,
2013-06-07 03:12:00,51.0,50.0,-100.00,North,5,0.0,0.0,96,-99.99,,,-99.99,,2013-06-07 08:12:00,
2013-06-07 03:32:00,50.0,49.0,-100.00,NNE,15,0.0,0.0,96,-99.99,,,-99.99,,2013-06-07 08:32:00,
2013-06-07 03:43:00,50.0,49.0,-100.00,NNE,15,0.0,0.0,96,-99.99,,,-99.99,,2013-06-07 08:43:00,
2013-06-07 03:52:00,50.0,49.0,-100.00,NNE,15,0.0,0.0,96,-99.99,,,-99.99,,2013-06-07 08:52:00,
2013-06-07 04:02:00,50.0,49.0,-100.00,NNE,15,0.0,0.0,96,-99.99,,,-99.99,,2013-06-07 09:02:00,
2013-06-07 04:12:00,50.0,48.0,-100.00,NE,50,0.0,0.0,94,-99.99,,,-99.99,,2013-06-07 09:12:00,
2013-06-07 04:32:00,50.0,48.0,-100.00,NE,50,0.0,0.0,94,-99.99,,,-99.99,,2013-06-07 09:32:00,
2013-06-07 04:43:00,50.0,48.0,-100.00,NE,50,0.0,0.0,94,-99.99,,,-99.99,,2013-06-07 09:43:00,
2013-06-07 04:53:00,50.0,48.0,-100.00,NE,50,0.0,0.0,94,-99.99,,,-99.99,,2013-06-07 09:53:00,
2013-06-07 05:02:00,50.0,48.0,-100.00,NE,50,0.0,0.0,94,-99.99,,,-99.99,,2013-06-07 10:02:00,
2013-06-07 05:33:00,49.0,47.0,-100.00,NNE,20,0.0,0.0,91,-99.99,,,-99.99,,2013-06-07 10:33:00,
2013-06-07 05:43:00,49.0,47.0,-100.00,NNE,20,0.0,0.0,91,-99.99,,,-99.99,,2013-06-07 10:43:00,
2013-06-07 05:53:00,49.0,47.0,-100.00,NNE,20,0.0,0.0,91,-99.99,,,-99.99,,2013-06-07 10:53:00,
2013-06-07 06:02:00,49.0,47.0,-100.00,NNE,20,0.0,0.0,91,-99.99,,,-99.99,,2013-06-07 11:02:00,
2013-06-07 06:12:00,49.0,47.0,-100.00,NNE,20,0.0,0.0,91,-99.99,,,-99.99,,2013-06-07 11:12:00,
2013-06-07 06:32:00,49.0,46.0,-100.00,NNE,30,0.0,0.0,91,-99.99,,,-99.99,,2013-06-07 11:32:00,
2013-06-07 06:42:00,49.0,46.0,-100.00,NNE,30,0.0,0.0,91,-99.99,,,-99.99,,2013-06-07 11:42:00,
2013-06-07 06:52:00,49.0,46.0,-100.00,NNE,30,0.0,0.0,91,-99.99,,,-99.99,,2013-06-07 11:52:00,
2013-06-07 07:02:00,49.0,46.0,-100.00,NNE,30,0.0,0.0,91,-99.99,,,-99.99,,2013-06-07 12:02:00,
2013-06-07 07:12:00,51.0,47.0,-100.00,NNE,25,0.0,0.0,89,-99.99,,,-99.99,,2013-06-07 12:12:00,
2013-06-07 07:33:00,51.0,47.0,-100.00,NNE,25,0.0,0.0,89,-99.99,,,-99.99,,2013-06-07 12:33:00,
2013-06-07 07:42:00,51.0,47.0,-100.00,NNE,25,0.0,0.0,89,-99.99,,,-99.99,,2013-06-07 12:42:00,
2013-06-07 07:52:00,51.0,47.0,-100.00,NNE,25,0.0,0.0,89,-99.99,,,-99.99,,2013-06-07 12:52:00,
2013-06-07 08:02:00,51.0,47.0,-100.00,NNE,25,0.0,0.0,89,-99.99,,,-99.99,,2013-06-07 13:02:00,
2013-06-07 08:12:00,52.0,48.0,-100.00,NE,45,0.0,0.0,85,-99.99,,,-99.99,,2013-06-07 13:12:00,
2013-06-07 08:32:00,52.0,48.0,-100.00,NE,45,0.0,0.0,85,-99.99,,,-99.99,,2013-06-07 13:32:00,
2013-06-07 08:43:00,52.0,48.0,-100.00,NE,45,0.0,0.0,85,-99.99,,,-99.99,,2013-06-07 13:43:00,
2013-06-07 08:52:00,52.0,48.0,-100.00,NE,45,0.0,0.0,85,-99.99,,,-99.99,,2013-06-07 13:52:00,
2013-06-07 09:02:00,52.0,48.0,-100.00,NE,45,0.0,0.0,85,-99.99,,,-99.99,,2013-06-07 14:02:00,
2013-06-07 09:33:00,54.0,48.0,-100.00,ESE,105,0.0,0.0,78,-99.99,,,-99.99,,2013-06-07 14:33:00,
2013-06-07 09:42:00,54.0,48.0,-100.00,ESE,105,0.0,0.0,78,-99.99,,,-99.99,,2013-06-07 14:42:00,
2013-06-07 09:52:00,54.0,48.0,-100.00,ESE,105,0.0,0.0,78,-99.99,,,-99.99,,2013-06-07 14:52:00,
2013-06-07 10:02:00,54.0,48.0,-100.00,ESE,105,0.0,0.0,78,-99.99,,,-99.99,,2013-06-07 15:02:00,
2013-06-07 10:12:00,54.0,48.0,-100.00,ESE,105,0.0,0.0,78,-99.99,,,-99.99,,2013-06-07 15:12:00,
2013-06-07 10:33:00,57.0,49.0,-100.00,ENE,60,0.0,0.0,73,-99.99,,,-99.99,,2013-06-07 15:33:00,
2013-06-07 10:43:00,57.0,49.0,-100.00,ENE,60,0.0,0.0,73,-99.99,,,-99.99,,2013-06-07 15:43:00,
2013-06-07 10:53:00,57.0,49.0,-100.00,ENE,60,0.0,0.0,73,-99.99,,,-99.99,,2013-06-07 15:53:00,
2013-06-07 11:03:00,57.0,49.0,-100.00,ENE,60,0.0,0.0,73,-99.99,,,-99.99,,2013-06-07 16:03:00,
2013-06-07 11:12:00,60.0,48.0,-100.00,ESE,110,0.0,0.0,63,-99.99,,,-99.99,,2013-06-07 16:12:00,
2013-06-07 11:33:00,60.0,48.0,-100.00,ESE,110,0.0,0.0,63,-99.99,,,-99.99,,2013-06-07 16:33:00,
2013-06-07 11:43:00,60.0,48.0,-100.00,ESE,110,0.0,0.0,63,-99.99,,,-99.99,,2013-06-07 16:43:00,
2013-06-07 11:53:00,60.0,48.0,-100.00,ESE,110,0.0,0.0,63,-99.99,,,-99.99,,2013-06-07 16:53:00,
2013-06-07 12:02:00,60.0,48.0,-100.00,ESE,110,0.0,0.0,63,-99.99,,,-99.99,,2013-06-07 17:02:00,
2013-06-07 12:32:00,61.0,48.0,-100.00,East,100,0.0,0.0,62,-99.99,,,-99.99,,2013-06-07 17:32:00,
2013-06-07 12:43:00,61.0,48.0,-100.00,East,100,0.0,0.0,62,-99.99,,,-99.99,,2013-06-07 17:43:00,
2013-06-07 12:52:00,61.0,48.0,-100.00,East,100,0.0,0.0,62,-99.99,,,-99.99,,2013-06-07 17:52:00,
2013-06-07 13:12:00,62.0,49.0,-100.00,ENE,75,0.0,0.0,62,-99.99,,,-99.99,,2013-06-07 18:12:00,
2013-06-07 13:38:00,62.0,49.0,-100.00,ENE,75,0.0,0.0,62,-99.99,,,-99.99,,2013-06-07 18:38:00,
2013-06-07 13:45:00,62.0,49.0,-100.00,ENE,75,0.0,0.0,62,-99.99,,,-99.99,,2013-06-07 18:45:00,
2013-06-07 13:59:00,62.0,49.0,-100.00,ENE,75,0.0,0.0,62,-99.99,,,-99.99,,2013-06-07 18:59:00,
2013-06-07 14:12:00,62.0,49.0,-100.00,NE,55,0.0,0.0,62,-99.99,,,-99.99,,2013-06-07 19:12:00,
2013-06-07 14:40:00,62.0,49.0,-100.00,NE,55,0.0,0.0,62,-99.99,,,-99.99,,2013-06-07 19:40:00,
2013-06-07 14:50:00,62.0,49.0,-100.00,NE,55,0.0,0.0,62,-99.99,,,-99.99,,2013-06-07 19:50:00,
2013-06-07 15:07:00,62.0,49.0,-100.00,NE,55,0.0,0.0,62,-99.99,,,-99.99,,2013-06-07 20:07:00,
2013-06-07 15:12:00,63.0,47.0,-100.00,East,90,0.0,0.0,56,-99.99,,,-99.99,,2013-06-07 20:12:00,
2013-06-07 15:41:00,63.0,47.0,-100.00,East,90,0.0,0.0,56,-99.99,,,-99.99,,2013-06-07 20:41:00,
2013-06-07 15:51:00,63.0,47.0,-100.00,East,90,0.0,0.0,56,-99.99,,,-99.99,,2013-06-07 20:51:00,
2013-06-07 15:58:00,63.0,47.0,-100.00,East,90,0.0,0.0,56,-99.99,,,-99.99,,2013-06-07 20:58:00,
2013-06-07 16:05:00,63.0,47.0,-100.00,East,90,0.0,0.0,56,-99.99,,,-99.99,,2013-06-07 21:05:00,
2013-06-07 16:12:00,66.0,48.0,-100.00,NNW,335,0.0,0.0,53,-99.99,,,-99.99,,2013-06-07 21:12:00,
2013-06-07 16:43:00,66.0,48.0,-100.00,NNW,335,0.0,0.0,53,-99.99,,,-99.99,,2013-06-07 21:43:00,
2013-06-07 17:01:00,66.0,48.0,-100.00,NNW,335,0.0,0.0,53,-99.99,,,-99.99,,2013-06-07 22:01:00,
2013-06-07 17:07:00,66.0,48.0,-100.00,NNW,335,0.0,0.0,53,-99.99,,,-99.99,,2013-06-07 22:07:00,
2013-06-07 17:12:00,64.0,50.0,-100.00,NNW,345,0.0,0.0,60,-99.99,,,-99.99,,2013-06-07 22:12:00,
2013-06-07 17:39:00,64.0,50.0,-100.00,NNW,345,0.0,0.0,60,-99.99,,,-99.99,,2013-06-07 22:39:00,
2013-06-07 17:49:00,64.0,50.0,-100.00,NNW,345,0.0,0.0,60,-99.99,,,-99.99,,2013-06-07 22:49:00,
2013-06-07 17:59:00,64.0,50.0,-100.00,NNW,345,0.0,0.0,60,-99.99,,,-99.99,,2013-06-07 22:59:00,
2013-06-07 18:07:00,64.0,50.0,-100.00,NNW,345,0.0,0.0,60,-99.99,,,-99.99,,2013-06-07 23:07:00,
2013-06-07 18:12:00,66.0,49.0,-100.00,NE,40,0.0,0.0,54,-99.99,,,-99.99,,2013-06-07 23:12:00,
2013-06-07 19:03:00,66.0,49.0,-100.00,NE,40,0.0,0.0,54,-99.99,,,-99.99,,2013-06-08 00:03:00,
2013-06-07 19:10:00,66.0,49.0,-100.00,NE,40,0.0,0.0,54,-99.99,,,-99.99,,2013-06-08 00:10:00,
2013-06-07 19:12:00,63.0,49.0,-100.00,ENE,65,0.0,0.0,61,-99.99,,,-99.99,,2013-06-08 00:12:00,
2013-06-07 19:37:00,63.0,49.0,-100.00,ENE,65,0.0,0.0,61,-99.99,,,-99.99,,2013-06-08 00:37:00,
2013-06-07 19:48:00,63.0,49.0,-100.00,ENE,65,0.0,0.0,61,-99.99,,,-99.99,,2013-06-08 00:48:00,
2013-06-07 20:00:00,63.0,49.0,-100.00,ENE,65,0.0,0.0,61,-99.99,,,-99.99,,2013-06-08 01:00:00,
2013-06-07 20:06:00,63.0,49.0,-100.00,ENE,65,0.0,0.0,61,-99.99,,,-99.99,,2013-06-08 01:06:00,
2013-06-07 20:12:00,61.0,53.0,-100.00,ESE,120,0.0,0.0,76,-99.99,,,-99.99,,2013-06-08 01:12:00,
2013-06-07 20:39:00,61.0,53.0,-100.00,ESE,120,0.0,0.0,76,-99.99,,,-99.99,,2013-06-08 01:39:00,
2013-06-07 20:48:00,61.0,53.0,-100.00,ESE,120,0.0,0.0,76,-99.99,,,-99.99,,2013-06-08 01:48:00,
2013-06-07 21:01:00,61.0,53.0,-100.00,ESE,120,0.0,0.0,76,-99.99,,,-99.99,,2013-06-08 02:01:00,
2013-06-07 21:08:00,61.0,53.0,-100.00,ESE,120,0.0,0.0,76,-99.99,,,-99.99,,2013-06-08 02:08:00,
2013-06-07 21:12:00,58.0,54.0,-100.00,ENE,65,0.0,0.0,85,-99.99,,,-99.99,,2013-06-08 02:12:00,
2013-06-07 21:37:00,58.0,54.0,-100.00,ENE,65,0.0,0.0,85,-99.99,,,-99.99,,2013-06-08 02:37:00,
2013-06-07 21:49:00,58.0,54.0,-100.00,ENE,65,0.0,0.0,85,-99.99,,,-99.99,,2013-06-08 02:49:00,
2013-06-07 21:59:00,58.0,54.0,-100.00,ENE,65,0.0,0.0,85,-99.99,,,-99.99,,2013-06-08 02:59:00,
2013-06-07 22:08:00,58.0,54.0,-100.00,ENE,65,0.0,0.0,85,-99.99,,,-99.99,,2013-06-08 03:08:00,
2013-06-07 22:12:00,56.0,54.0,-100.00,NNE,30,0.0,0.0,92,-99.99,,,-99.99,,2013-06-08 03:12:00,
2013-06-07 22:40:00,56.0,54.0,-100.00,NNE,30,0.0,0.0,92,-99.99,,,-99.99,,2013-06-08 03:40:00,
2013-06-07 22:53:00,56.0,54.0,-100.00,NNE,30,0.0,0.0,92,-99.99,,,-99.99,,2013-06-08 03:53:00,
2013-06-07 23:00:00,56.0,54.0,-100.00,NNE,30,0.0,0.0,92,-99.99,,,-99.99,,2013-06-08 04:00:00,
2013-06-07 23:03:00,56.0,54.0,-100.00,NNE,30,0.0,0.0,92,-99.99,,,-99.99,,2013-06-08 04:03:00,
2013-06-07 23:12:00,55.0,53.0,-100.00,NE,35,0.0,0.0,94,-99.99,,,-99.99,,2013-06-08 04:12:00,
2013-06-07 23:33:00,55.0,53.0,-100.00,NE,35,0.0,0.0,94,-99.99,,,-99.99,,2013-06-08 04:33:00,
2013-06-07 23:42:00,55.0,53.0,-100.00,NE,35,0.0,0.0,94,-99.99,,,-99.99,,2013-06-08 04:42:00,
2013-06-07 23:53:00,55.0,53.0,-100.00,NE,35,0.0,0.0,94,-99.99,,,-99.99,,2013-06-08 04:53:00,